createdAt,value
2022-07-30T00:01:16.051Z,17.78
2022-07-30T00:03:42.675Z,17.73
2022-07-30T00:06:09.314Z,17.63
2022-07-30T00:08:35.831Z,17.50
2022-07-30T00:11:02.366Z,17.40
2022-07-30T00:13:29.532Z,17.41
2022-07-30T00:15:56.097Z,17.39
2022-07-30T00:18:22.634Z,17.34
2022-07-30T00:20:49.528Z,17.18
2022-07-30T00:23:17.186Z,16.89
2022-07-30T00:25:44.238Z,16.74
2022-07-30T00:28:11.079Z,16.72
2022-07-30T00:30:38.737Z,16.64
2022-07-30T00:33:05.504Z,16.51
2022-07-30T00:35:34.861Z,16.47
2022-07-30T00:38:01.498Z,16.53
2022-07-30T00:40:28.675Z,16.55
2022-07-30T00:42:55.219Z,16.41
2022-07-30T00:45:21.937Z,16.22
2022-07-30T00:47:48.806Z,16.08
2022-07-30T00:50:16.462Z,16.01
2022-07-30T00:52:43.695Z,16.00
2022-07-30T00:55:14.458Z,16.02
2022-07-30T00:57:42.975Z,16.06
2022-07-30T01:00:15.397Z,15.95
2022-07-30T01:02:42.071Z,15.78
2022-07-30T01:05:09.604Z,15.68
2022-07-30T01:07:36.579Z,15.58
2022-07-30T01:10:05.494Z,15.65
2022-07-30T01:12:32.719Z,15.61
2022-07-30T01:15:05.049Z,15.40
2022-07-30T01:17:32.099Z,15.24
2022-07-30T01:20:08.232Z,15.13
2022-07-30T01:22:57.724Z,15.02
2022-07-30T01:25:51.370Z,15.04
2022-07-30T01:28:23.411Z,15.01
2022-07-30T01:30:52.532Z,14.95
2022-07-30T01:33:22.190Z,14.81
2022-07-30T01:35:51.450Z,14.71
2022-07-30T01:38:23.011Z,14.72
2022-07-30T01:40:52.965Z,14.80
2022-07-30T01:43:23.642Z,14.76
2022-07-30T01:45:53.113Z,14.82
2022-07-30T01:48:23.204Z,14.84
2022-07-30T01:50:54.740Z,14.78
2022-07-30T01:53:25.790Z,14.69
2022-07-30T01:55:56.111Z,14.64
2022-07-30T01:58:29.387Z,14.54
2022-07-30T02:00:58.697Z,14.46
2022-07-30T02:03:26.687Z,14.43
2022-07-30T02:06:04.086Z,14.48
2022-07-30T02:08:39.347Z,14.56
2022-07-30T02:11:15.035Z,14.60
2022-07-30T02:13:50.418Z,14.49
2022-07-30T02:16:24.252Z,14.23
2022-07-30T02:19:04.449Z,14.11
2022-07-30T02:21:38.681Z,13.96
2022-07-30T02:24:12.775Z,13.97
2022-07-30T02:26:42.881Z,13.99
2022-07-30T02:29:11.743Z,14.04
2022-07-30T02:31:40.723Z,13.93
2022-07-30T02:34:10.053Z,13.74
2022-07-30T02:36:39.541Z,13.69
2022-07-30T02:39:08.474Z,13.69
2022-07-30T02:41:40.030Z,13.72
2022-07-30T02:44:08.351Z,13.83
2022-07-30T02:46:38.065Z,13.85
2022-07-30T02:49:07.262Z,13.81
2022-07-30T02:51:35.527Z,13.72
2022-07-30T02:54:03.960Z,13.59
2022-07-30T02:56:32.133Z,13.56
2022-07-30T02:59:03.071Z,13.59
2022-07-30T03:01:33.542Z,13.67
2022-07-30T03:04:02.754Z,13.69
2022-07-30T03:06:31.760Z,13.66
2022-07-30T03:09:01.135Z,13.46
2022-07-30T03:11:31.664Z,13.34
2022-07-30T03:13:58.312Z,13.23
2022-07-30T03:16:28.900Z,13.20
2022-07-30T03:19:02.310Z,13.24
2022-07-30T03:21:35.615Z,13.35
2022-07-30T03:24:04.978Z,13.36
2022-07-30T03:26:33.576Z,13.26
2022-07-30T03:29:02.031Z,13.32
2022-07-30T03:31:36.184Z,13.20
2022-07-30T03:34:07.144Z,13.09
2022-07-30T03:36:36.101Z,13.10
2022-07-30T03:39:05.345Z,13.20
2022-07-30T03:41:33.448Z,13.22
2022-07-30T03:44:00.975Z,12.99
2022-07-30T03:46:29.612Z,12.84
2022-07-30T03:48:58.727Z,12.87
2022-07-30T03:51:26.261Z,12.96
2022-07-30T03:54:01.330Z,12.88
2022-07-30T03:56:27.936Z,12.92
2022-07-30T03:58:54.880Z,13.03
2022-07-30T04:01:26.163Z,13.10
2022-07-30T04:03:53.268Z,13.15
2022-07-30T04:06:19.830Z,13.11
2022-07-30T04:08:46.341Z,13.09
2022-07-30T04:11:12.864Z,13.16
2022-07-30T04:13:39.481Z,13.18
2022-07-30T04:16:40.838Z,13.12
2022-07-30T04:19:08.835Z,13.09
2022-07-30T04:21:38.504Z,13.04
2022-07-30T04:24:08.030Z,13.03
2022-07-30T04:26:37.681Z,13.05
2022-07-30T04:29:09.164Z,13.10
2022-07-30T04:31:41.326Z,12.99
2022-07-30T04:34:12.211Z,12.80
2022-07-30T04:36:40.157Z,12.71
2022-07-30T04:39:07.003Z,12.73
2022-07-30T04:41:48.132Z,12.81
2022-07-30T04:44:20.003Z,12.86
2022-07-30T04:46:48.133Z,12.95
2022-07-30T04:49:18.832Z,12.92
2022-07-30T04:51:47.418Z,12.83
2022-07-30T04:54:16.404Z,12.78
2022-07-30T04:56:50.540Z,12.85
2022-07-30T04:59:24.878Z,12.99
2022-07-30T05:01:54.935Z,13.04
2022-07-30T05:04:24.373Z,13.07
2022-07-30T05:06:53.926Z,13.06
2022-07-30T05:09:21.349Z,12.99
2022-07-30T05:11:53.637Z,12.93
2022-07-30T05:14:22.290Z,12.93
2022-07-30T05:16:50.020Z,12.98
2022-07-30T05:19:19.123Z,12.96
2022-07-30T05:21:45.937Z,12.91
2022-07-30T05:24:12.507Z,12.88
2022-07-30T05:26:39.678Z,12.89
2022-07-30T05:29:07.258Z,12.92
2022-07-30T05:31:34.907Z,12.97
2022-07-30T05:34:03.463Z,13.00
2022-07-30T05:36:30.697Z,13.10
2022-07-30T05:38:57.204Z,13.16
2022-07-30T05:41:31.734Z,13.25
2022-07-30T05:43:59.262Z,13.37
2022-07-30T05:46:26.134Z,13.50
2022-07-30T05:48:53.378Z,13.53
2022-07-30T05:51:20.809Z,13.56
2022-07-30T05:53:47.767Z,13.65
2022-07-30T05:56:14.373Z,13.75
2022-07-30T05:58:40.938Z,13.82
2022-07-30T06:01:07.919Z,13.89
2022-07-30T06:03:34.858Z,14.04
2022-07-30T06:06:04.685Z,14.15
2022-07-30T06:08:31.589Z,14.30
2022-07-30T06:10:58.066Z,14.43
2022-07-30T06:13:24.660Z,14.53
2022-07-30T06:15:52.835Z,14.56
2022-07-30T06:18:19.587Z,14.66
2022-07-30T06:20:52.008Z,14.79
2022-07-30T06:23:19.506Z,14.93
2022-07-30T06:25:50.400Z,15.03
2022-07-30T06:28:37.105Z,15.17
2022-07-30T06:31:05.650Z,15.27
2022-07-30T06:33:32.256Z,15.41
2022-07-30T06:35:59.087Z,15.52
2022-07-30T06:38:25.599Z,15.61
2022-07-30T06:40:52.188Z,15.74
2022-07-30T06:43:20.218Z,15.87
2022-07-30T06:45:46.705Z,15.92
2022-07-30T06:48:13.412Z,16.04
2022-07-30T06:50:41.644Z,16.16
2022-07-30T06:53:08.192Z,16.31
2022-07-30T06:55:34.698Z,16.45
2022-07-30T06:58:01.167Z,16.52
2022-07-30T07:00:27.746Z,16.62
2022-07-30T07:02:54.303Z,16.76
2022-07-30T07:05:22.571Z,16.86
2022-07-30T07:07:58.666Z,16.94
2022-07-30T07:10:26.313Z,16.98
2022-07-30T07:12:52.878Z,17.02
2022-07-30T07:15:19.591Z,17.12
2022-07-30T07:17:49.135Z,17.27
2022-07-30T07:20:15.661Z,17.41
2022-07-30T07:22:42.166Z,17.47
2022-07-30T07:25:09.172Z,17.60
2022-07-30T07:27:37.718Z,17.68
2022-07-30T07:30:06.403Z,17.79
2022-07-30T07:32:35.171Z,17.89
2022-07-30T07:35:02.491Z,17.96
2022-07-30T07:37:29.327Z,18.08
2022-07-30T07:39:55.880Z,18.19
2022-07-30T07:42:22.610Z,18.31
2022-07-30T07:44:49.124Z,18.42
2022-07-30T07:47:15.666Z,18.52
2022-07-30T07:49:42.448Z,18.59
2022-07-30T07:52:09.282Z,18.66
2022-07-30T07:54:35.863Z,18.73
2022-07-30T07:57:04.493Z,18.72
2022-07-30T07:59:39.555Z,18.81
2022-07-30T08:02:08.549Z,18.82
2022-07-30T08:04:35.961Z,18.86
2022-07-30T08:07:03.272Z,18.94
2022-07-30T08:09:44.070Z,19.11
2022-07-30T08:12:14.437Z,19.17
2022-07-30T08:14:41.091Z,19.25
2022-07-30T08:17:08.353Z,19.38
2022-07-30T08:19:35.374Z,19.49
2022-07-30T08:22:01.901Z,19.62
2022-07-30T08:24:28.492Z,19.69
2022-07-30T08:26:54.998Z,19.78
2022-07-30T08:29:21.551Z,19.89
2022-07-30T08:31:48.264Z,19.91
2022-07-30T08:34:15.052Z,19.91
2022-07-30T08:36:42.015Z,19.84
2022-07-30T08:39:08.958Z,19.92
2022-07-30T08:41:38.726Z,20.03
2022-07-30T08:44:12.852Z,20.08
2022-07-30T08:46:47.420Z,20.15
2022-07-30T08:49:15.982Z,20.18
2022-07-30T08:51:43.347Z,20.26
2022-07-30T08:54:10.391Z,20.36
2022-07-30T08:56:37.217Z,20.35
2022-07-30T08:59:04.391Z,20.48
2022-07-30T09:01:30.965Z,20.64
2022-07-30T09:03:57.737Z,20.70
2022-07-30T09:06:24.515Z,20.70
2022-07-30T09:08:51.059Z,20.84
2022-07-30T09:11:17.590Z,20.73
2022-07-30T09:13:44.975Z,20.88
2022-07-30T09:16:26.462Z,20.74
2022-07-30T09:18:54.915Z,20.63
2022-07-30T09:21:28.505Z,20.56
2022-07-30T09:23:56.105Z,20.41
2022-07-30T09:26:22.655Z,20.44
2022-07-30T09:28:49.253Z,20.52
2022-07-30T09:31:18.381Z,20.62
2022-07-30T09:33:47.351Z,20.86
2022-07-30T09:36:18.544Z,21.00
2022-07-30T09:38:54.203Z,21.10
2022-07-30T09:41:39.140Z,21.31
2022-07-30T09:44:07.205Z,21.43
2022-07-30T09:46:51.451Z,21.43
2022-07-30T09:49:24.204Z,21.61
2022-07-30T09:52:06.476Z,21.79
2022-07-30T09:54:52.971Z,21.95
2022-07-30T09:57:26.010Z,21.87
2022-07-30T09:59:57.366Z,21.81
2022-07-30T10:02:32.836Z,21.81
2022-07-30T10:05:15.741Z,21.88
2022-07-30T10:08:05.454Z,21.84
2022-07-30T10:10:36.517Z,21.89
2022-07-30T10:13:16.889Z,21.89
2022-07-30T10:15:46.310Z,21.87
2022-07-30T10:18:16.036Z,21.96
2022-07-30T10:20:44.911Z,22.15
2022-07-30T10:23:15.754Z,22.29
2022-07-30T10:25:48.909Z,22.40
2022-07-30T10:28:17.907Z,22.51
2022-07-30T10:30:45.246Z,22.61
2022-07-30T10:33:34.865Z,22.64
2022-07-30T10:35:59.611Z,22.84
2022-07-30T10:38:33.770Z,22.76
2022-07-30T10:41:44.576Z,22.61
2022-07-30T10:45:01.391Z,22.39
2022-07-30T10:47:34.524Z,22.40
2022-07-30T10:50:19.548Z,22.23
2022-07-30T10:52:53.874Z,22.25
2022-07-30T10:55:37.128Z,22.46
2022-07-30T10:58:12.360Z,22.54
2022-07-30T11:00:52.826Z,22.52
2022-07-30T11:03:40.423Z,22.45
2022-07-30T11:06:24.423Z,22.41
2022-07-30T11:08:51.638Z,22.53
2022-07-30T11:11:28.681Z,22.63
2022-07-30T11:14:07.865Z,22.83
2022-07-30T11:16:34.690Z,23.09
2022-07-30T11:19:56.923Z,23.05
2022-07-30T11:22:44.915Z,23.08
2022-07-30T11:25:50.704Z,23.03
2022-07-30T11:28:43.077Z,23.44
2022-07-30T11:31:54.926Z,23.55
2022-07-30T11:34:25.649Z,23.58
2022-07-30T11:37:19.075Z,23.70
2022-07-30T11:39:55.089Z,23.79
2022-07-30T11:42:41.652Z,23.89
2022-07-30T11:45:17.875Z,23.55
2022-07-30T11:47:52.685Z,23.74
2022-07-30T11:50:27.175Z,23.84
2022-07-30T11:52:58.302Z,23.95
2022-07-30T11:55:44.548Z,24.07
2022-07-30T11:58:26.540Z,24.23
2022-07-30T12:01:20.647Z,24.39
2022-07-30T12:03:47.624Z,24.49
2022-07-30T12:06:19.876Z,24.56
2022-07-30T12:08:49.558Z,24.56
2022-07-30T12:11:17.194Z,24.63
2022-07-30T12:13:55.603Z,24.54
2022-07-30T12:16:22.169Z,24.49
2022-07-30T12:18:48.795Z,24.52
2022-07-30T12:21:16.135Z,24.51
2022-07-30T12:24:03.839Z,24.44
2022-07-30T12:26:34.517Z,24.41
2022-07-30T12:29:07.238Z,24.45
2022-07-30T12:31:34.170Z,24.52
2022-07-30T12:34:04.959Z,24.57
2022-07-30T12:36:35.698Z,24.63
2022-07-30T12:39:06.226Z,24.78
2022-07-30T12:41:51.259Z,24.65
2022-07-30T12:44:38.508Z,24.74
2022-07-30T12:47:28.785Z,24.81
2022-07-30T12:49:58.682Z,25.00
2022-07-30T12:52:30.891Z,25.19
2022-07-30T12:55:11.275Z,25.14
2022-07-30T12:58:08.642Z,25.22
2022-07-30T13:00:44.701Z,25.18
2022-07-30T13:03:26.844Z,25.19
2022-07-30T13:05:56.649Z,25.26
2022-07-30T13:08:56.711Z,25.19
2022-07-30T13:11:38.564Z,25.28
2022-07-30T13:14:05.690Z,25.43
2022-07-30T13:16:35.591Z,25.26
2022-07-30T13:19:12.076Z,25.24
2022-07-30T13:21:40.965Z,25.23
2022-07-30T13:24:17.912Z,25.27
2022-07-30T13:26:45.590Z,25.29
2022-07-30T13:29:13.463Z,25.16
2022-07-30T13:31:43.296Z,25.17
2022-07-30T13:34:11.216Z,25.15
2022-07-30T13:36:37.773Z,25.15
2022-07-30T13:39:04.346Z,25.16
2022-07-30T13:41:30.959Z,24.99
2022-07-30T13:43:57.584Z,24.89
2022-07-30T13:46:24.123Z,24.98
2022-07-30T13:48:50.854Z,24.98
2022-07-30T13:51:17.607Z,25.04
2022-07-30T13:53:44.215Z,24.97
2022-07-30T13:56:12.460Z,24.98
2022-07-30T13:58:40.366Z,24.93
2022-07-30T14:01:07.368Z,24.86
2022-07-30T14:03:35.333Z,24.78
2022-07-30T14:06:10.709Z,24.84
2022-07-30T14:08:38.047Z,24.79
2022-07-30T14:11:04.558Z,24.77
2022-07-30T14:13:31.164Z,24.70
2022-07-30T14:15:57.984Z,24.75
2022-07-30T14:18:24.516Z,24.80
2022-07-30T14:20:53.505Z,24.78
2022-07-30T14:23:20.312Z,24.84
2022-07-30T14:25:46.994Z,24.96
2022-07-30T14:28:13.850Z,25.00
2022-07-30T14:30:42.115Z,24.90
2022-07-30T14:33:08.913Z,24.98
2022-07-30T14:35:35.519Z,24.94
2022-07-30T14:38:03.404Z,25.03
2022-07-30T14:40:30.220Z,24.99
2022-07-30T14:42:56.839Z,24.90
2022-07-30T14:45:24.728Z,24.94
2022-07-30T14:47:52.293Z,24.96
2022-07-30T14:50:18.846Z,24.87
2022-07-30T14:52:47.375Z,24.80
2022-07-30T14:55:14.328Z,24.73
2022-07-30T14:57:41.010Z,24.62
2022-07-30T15:00:10.878Z,24.55
2022-07-30T15:02:38.082Z,24.43
2022-07-30T15:05:05.224Z,24.30
2022-07-30T15:07:32.479Z,24.21
2022-07-30T15:10:01.480Z,24.09
2022-07-30T15:12:28.317Z,24.03
2022-07-30T15:14:54.942Z,23.94
2022-07-30T15:17:22.285Z,23.77
2022-07-30T15:19:51.171Z,23.65
2022-07-30T15:22:19.725Z,23.68
2022-07-30T15:24:46.670Z,23.76
2022-07-30T15:27:13.275Z,23.67
2022-07-30T15:29:39.831Z,23.73
2022-07-30T15:32:07.202Z,23.75
2022-07-30T15:34:34.423Z,23.80
2022-07-30T15:37:03.714Z,23.80
2022-07-30T15:39:32.831Z,23.84
2022-07-30T15:42:05.741Z,23.71
2022-07-30T15:44:32.590Z,23.65
2022-07-30T15:47:00.464Z,23.60
2022-07-30T15:49:28.245Z,23.62
2022-07-30T15:51:54.967Z,23.71
2022-07-30T15:54:23.931Z,23.72
2022-07-30T15:56:54.515Z,23.68
2022-07-30T15:59:28.425Z,23.70
2022-07-30T16:01:54.938Z,23.73
2022-07-30T16:04:21.537Z,23.72
2022-07-30T16:06:58.524Z,23.79
2022-07-30T16:09:25.803Z,23.72
2022-07-30T16:11:53.660Z,23.70
2022-07-30T16:14:20.486Z,23.68
2022-07-30T16:16:47.208Z,23.69
2022-07-30T16:19:13.853Z,23.63
2022-07-30T16:21:41.055Z,23.52
2022-07-30T16:24:08.664Z,23.47
2022-07-30T16:26:37.122Z,23.52
2022-07-30T16:29:08.564Z,23.44
2022-07-30T16:31:39.166Z,23.51
2022-07-30T16:34:06.564Z,23.59
2022-07-30T16:36:33.263Z,23.63
2022-07-30T16:39:01.115Z,23.60
2022-07-30T16:41:27.774Z,23.60
2022-07-30T16:43:54.350Z,23.72
2022-07-30T16:46:20.871Z,23.80
2022-07-30T16:48:47.433Z,23.94
2022-07-30T16:51:17.350Z,24.04
2022-07-30T16:53:44.250Z,24.01
2022-07-30T16:56:10.777Z,24.00
2022-07-30T16:58:37.385Z,23.96
2022-07-30T17:01:04.071Z,23.93
2022-07-30T17:03:30.594Z,23.96
2022-07-30T17:05:57.127Z,24.02
2022-07-30T17:08:25.186Z,24.09
2022-07-30T17:10:52.912Z,24.08
2022-07-30T17:13:20.549Z,24.03
2022-07-30T17:15:47.653Z,23.99
2022-07-30T17:18:14.642Z,23.87
2022-07-30T17:20:41.275Z,23.72
2022-07-30T17:23:07.911Z,24.08
2022-07-30T17:25:34.517Z,23.68
2022-07-30T17:28:01.907Z,23.55
2022-07-30T17:30:29.600Z,23.47
2022-07-30T17:32:56.982Z,23.51
2022-07-30T17:35:24.697Z,23.60
2022-07-30T17:37:51.434Z,23.72
2022-07-30T17:40:29.820Z,23.84
2022-07-30T17:43:03.364Z,23.90
2022-07-30T17:45:31.920Z,23.92
2022-07-30T17:47:58.467Z,23.98
2022-07-30T17:50:25.095Z,24.05
2022-07-30T17:52:51.618Z,24.04
2022-07-30T17:55:18.252Z,23.98
2022-07-30T17:57:44.801Z,24.01
2022-07-30T18:00:12.026Z,23.97
2022-07-30T18:02:38.951Z,23.93
2022-07-30T18:05:05.988Z,23.79
2022-07-30T18:07:32.633Z,23.72
2022-07-30T18:09:59.208Z,23.68
2022-07-30T18:12:25.739Z,23.59
2022-07-30T18:14:52.400Z,23.57
2022-07-30T18:17:18.970Z,23.53
2022-07-30T18:19:45.538Z,23.44
2022-07-30T18:22:14.726Z,23.34
2022-07-30T18:24:43.665Z,23.28
2022-07-30T18:27:12.139Z,23.19
2022-07-30T18:29:38.682Z,23.11
2022-07-30T18:32:06.251Z,23.01
2022-07-30T18:34:33.548Z,22.88
2022-07-30T18:37:00.133Z,22.82
2022-07-30T18:39:26.681Z,22.76
2022-07-30T18:41:53.260Z,22.68
2022-07-30T18:44:20.080Z,22.64
2022-07-30T18:46:46.714Z,22.57
2022-07-30T18:49:34.223Z,22.50
2022-07-30T18:52:01.287Z,22.38
2022-07-30T18:54:29.399Z,22.32
2022-07-30T18:56:56.294Z,22.30
2022-07-30T18:59:23.035Z,22.29
2022-07-30T19:01:49.635Z,22.24
2022-07-30T19:04:16.204Z,22.21
2022-07-30T19:06:42.750Z,22.20
2022-07-30T19:09:17.223Z,22.17
2022-07-30T19:11:46.158Z,22.13
2022-07-30T19:14:14.021Z,22.12
2022-07-30T19:16:42.653Z,22.03
2022-07-30T19:19:13.671Z,21.98
2022-07-30T19:21:41.176Z,21.90
2022-07-30T19:24:10.274Z,21.86
2022-07-30T19:26:39.238Z,21.81
2022-07-30T19:29:07.811Z,21.69
2022-07-30T19:31:35.303Z,21.49
2022-07-30T19:34:02.127Z,21.45
2022-07-30T19:36:30.102Z,21.40
2022-07-30T19:38:58.775Z,21.39
2022-07-30T19:41:25.364Z,21.37
2022-07-30T19:43:57.817Z,21.30
2022-07-30T19:46:25.464Z,21.21
2022-07-30T19:48:52.183Z,21.10
2022-07-30T19:51:20.756Z,20.96
2022-07-30T19:53:47.842Z,20.88
2022-07-30T19:56:14.417Z,20.88
2022-07-30T19:58:41.562Z,20.85
2022-07-30T20:01:10.056Z,20.72
2022-07-30T20:03:38.652Z,20.56
2022-07-30T20:06:08.076Z,20.35
2022-07-30T20:08:38.472Z,20.20
2022-07-30T20:11:07.299Z,20.08
2022-07-30T20:13:45.557Z,19.93
2022-07-30T20:16:14.893Z,19.82
2022-07-30T20:18:42.969Z,19.74
2022-07-30T20:21:15.023Z,19.68
2022-07-30T20:23:42.794Z,19.59
2022-07-30T20:26:13.589Z,19.53
2022-07-30T20:28:42.316Z,19.59
2022-07-30T20:31:08.877Z,19.66
2022-07-30T20:33:37.920Z,19.68
2022-07-30T20:36:09.673Z,19.69
2022-07-30T20:38:39.025Z,19.73
2022-07-30T20:41:09.857Z,19.71
2022-07-30T20:43:51.428Z,19.55
2022-07-30T20:46:20.216Z,19.36
2022-07-30T20:48:46.846Z,19.29
2022-07-30T20:51:13.742Z,19.34
2022-07-30T20:53:41.774Z,19.39
2022-07-30T20:56:13.472Z,19.31
2022-07-30T20:58:41.664Z,19.16
2022-07-30T21:01:15.488Z,19.05
2022-07-30T21:03:44.026Z,19.00
2022-07-30T21:06:14.876Z,18.97
2022-07-30T21:08:41.386Z,18.94
2022-07-30T21:11:07.927Z,19.01
2022-07-30T21:13:36.526Z,19.08
2022-07-30T21:16:03.578Z,19.02
2022-07-30T21:18:31.458Z,18.98
2022-07-30T21:21:00.647Z,19.03
2022-07-30T21:23:27.527Z,19.02
2022-07-30T21:26:00.906Z,18.94
2022-07-30T21:28:29.130Z,18.91
2022-07-30T21:30:57.412Z,18.97
2022-07-30T21:33:24.423Z,19.01
2022-07-30T21:35:57.555Z,18.95
2022-07-30T21:38:26.291Z,18.93
2022-07-30T21:40:52.833Z,18.86
2022-07-30T21:43:22.964Z,18.81
2022-07-30T21:45:56.591Z,18.80
2022-07-30T21:48:24.838Z,18.76
2022-07-30T21:50:54.868Z,18.81
2022-07-30T21:53:29.886Z,18.79
2022-07-30T21:56:08.402Z,18.73
2022-07-30T21:58:34.899Z,18.80
2022-07-30T22:01:16.839Z,18.88
2022-07-30T22:04:04.421Z,18.91
2022-07-30T22:06:39.218Z,18.88
2022-07-30T22:12:06.277Z,18.92
2022-07-30T22:14:33.140Z,18.90
2022-07-30T22:17:00.314Z,18.78
2022-07-30T22:19:26.844Z,18.72
2022-07-30T22:21:54.165Z,18.75
2022-07-30T22:24:29.806Z,18.77
2022-07-30T22:27:11.067Z,18.77
2022-07-30T22:29:43.030Z,18.80
2022-07-30T22:32:10.926Z,18.81
2022-07-30T22:34:37.781Z,18.80
2022-07-30T22:37:04.363Z,18.72
2022-07-30T22:39:49.339Z,18.68
2022-07-30T22:42:23.996Z,18.69
2022-07-30T22:44:51.331Z,18.64
2022-07-30T22:47:18.857Z,18.58
2022-07-30T22:52:40.007Z,18.27
2022-07-30T22:55:15.527Z,18.35
2022-07-30T22:57:48.797Z,18.29
2022-07-30T23:00:27.774Z,18.25
2022-07-30T23:02:56.847Z,18.19
2022-07-30T23:05:24.800Z,18.16
2022-07-30T23:07:51.495Z,18.03
2022-07-30T23:10:20.714Z,17.94
2022-07-30T23:12:28.284Z,18.93
2022-07-30T23:12:34.529Z,18.40
2022-07-30T23:12:53.825Z,17.84
2022-07-30T23:15:21.897Z,17.75
2022-07-30T23:17:48.639Z,17.75
2022-07-30T23:20:20.899Z,17.83
2022-07-30T23:22:48.431Z,17.93
2022-07-30T23:25:15.307Z,17.93
2022-07-30T23:27:42.877Z,17.86
2022-07-30T23:30:11.477Z,17.69
2022-07-30T23:32:39.954Z,17.53
2022-07-30T23:35:09.958Z,17.45
2022-07-30T23:37:48.209Z,17.49
2022-07-30T23:40:19.593Z,17.54
2022-07-30T23:42:47.476Z,17.59
2022-07-30T23:45:14.590Z,17.51
2022-07-30T23:47:58.018Z,17.44
2022-07-30T23:50:28.129Z,17.30
2022-07-30T23:52:55.652Z,17.28
2022-07-30T23:55:22.375Z,17.38
2022-07-30T23:57:48.919Z,17.47
